Terminal Aerodrome Forecast
Issued by NWS

Home | Current Version | Previous Version | Text Only | Print | Product List | Glossary On
Versions: 1 2 3 4 5 6 7 8 9 10 11 12 13 14 15 16 17 18 19 20 21 22 23 24 25 26 27 28 29 30 31 32 33 34 35 36 37 38 39 40 41 42
000
FTUS43 KPAH 170802 AAA
TAFOWB
TAF AMD
KOWB 170802Z 1708/1806 00000KT 1SM BR SKC
      TEMPO 1708/1710 1/4SM FG VV001
     FM171000 VRB03KT 5SM BR OVC010
     FM171500 08004KT P6SM SCT035
     FM171800 10005KT P6SM BKN040
     FM180000 00000KT P6SM BKN100=

USA.gov is the U.S. government's official web portal to all federal, state and local government web resources and services.